Time;durP1;ratioP1;P1;durP2;ratioP2;P2;SDS_P1;SDS_P2;PMS_P1;PMS_P2;Temp;Humidity;BMP_temperature;BMP_pressure;BME280_temperature;BME280_humidity;BME280_pressure;Samples;Min_cycle;Max_cycle;Signal;HPM_P1;HPM_P2
2021/07/16 00:01:45;;;;;;;4.43;4.03;;;;;;;17.79;100.00;100636.25;4968809;28;20213;-72
2021/07/16 00:04:11;;;;;;;4.30;3.90;;;;;;;17.79;100.00;100643.31;4969172;28;20695;-72
2021/07/16 00:06:38;;;;;;;4.43;4.03;;;;;;;17.73;100.00;100641.00;4977252;28;20240;-72
2021/07/16 00:09:05;;;;;;;4.63;4.23;;;;;;;17.69;100.00;100642.97;4968230;28;20232;-72
2021/07/16 00:11:34;;;;;;;4.60;4.13;;;;;;;17.68;100.00;100643.06;4974768;28;20209;-72
2021/07/16 00:14:01;;;;;;;4.73;4.23;;;;;;;17.64;100.00;100647.63;4967448;28;20206;-72
2021/07/16 00:16:28;;;;;;;4.80;4.40;;;;;;;17.61;100.00;100645.19;4967965;28;20801;-72
2021/07/16 00:18:55;;;;;;;4.80;4.40;;;;;;;17.59;100.00;100647.91;4961384;28;20206;-72
2021/07/16 00:21:22;;;;;;;4.83;4.43;;;;;;;17.52;100.00;100650.94;4966673;28;20204;-72
2021/07/16 00:23:48;;;;;;;5.53;5.00;;;;;;;17.47;100.00;100661.75;4962976;28;20202;-72
2021/07/16 00:26:15;;;;;;;6.20;4.20;;;;;;;17.48;100.00;100659.97;4967410;28;20226;-72
2021/07/16 00:28:43;;;;;;;4.70;4.30;;;;;;;17.46;100.00;100661.84;4962579;28;20217;-72
2021/07/16 00:31:10;;;;;;;5.30;4.80;;;;;;;17.45;100.00;100665.41;4969486;28;20575;-72
2021/07/16 00:33:36;;;;;;;5.20;4.70;;;;;;;17.42;100.00;100663.78;4972135;28;20210;-72
2021/07/16 00:36:04;;;;;;;4.97;4.47;;;;;;;17.35;100.00;100673.81;4966967;28;20229;-72
2021/07/16 00:38:30;;;;;;;5.57;4.87;;;;;;;17.32;100.00;100667.84;4970471;28;20210;-72
2021/07/16 00:40:57;;;;;;;5.43;4.93;;;;;;;17.32;100.00;100666.06;4970054;28;20811;-72
2021/07/16 00:43:24;;;;;;;5.73;5.17;;;;;;;17.31;100.00;100663.53;4969666;28;20202;-72
2021/07/16 00:45:52;;;;;;;7.27;4.60;;;;;;;17.28;100.00;100663.69;4964031;28;20847;-72
2021/07/16 00:48:18;;;;;;;5.63;5.13;;;;;;;17.26;100.00;100668.19;4971926;28;20198;-72
2021/07/16 00:50:46;;;;;;;5.30;4.80;;;;;;;17.17;100.00;100662.47;4969402;28;20205;-72
2021/07/16 00:53:15;;;;;;;5.80;5.13;;;;;;;17.21;100.00;100660.53;4968462;28;20653;-72
2021/07/16 00:55:42;;;;;;;6.47;4.67;;;;;;;17.18;100.00;100660.69;4964683;28;20198;-72
2021/07/16 00:58:10;;;;;;;5.27;4.77;;;;;;;17.17;100.00;100662.47;4967041;28;20210;-72
2021/07/16 01:00:37;;;;;;;6.10;5.50;;;;;;;17.14;100.00;100660.00;4965542;28;20504;-72
2021/07/16 01:03:05;;;;;;;5.57;5.03;;;;;;;17.15;100.00;100661.69;4966870;28;20667;-72
2021/07/16 01:05:32;;;;;;;6.00;5.40;;;;;;;17.16;100.00;100663.38;4967268;28;20228;-72
2021/07/16 01:07:59;;;;;;;7.37;5.23;;;;;;;17.10;100.00;100654.97;4964712;28;20324;-72
2021/07/16 01:10:25;;;;;;;5.80;5.20;;;;;;;17.17;100.00;100653.72;4967256;28;20224;-72
2021/07/16 01:12:53;;;;;;;6.30;5.17;;;;;;;17.18;100.00;100650.13;4966844;28;20205;-72
2021/07/16 01:15:21;;;;;;;6.17;5.57;;;;;;;17.17;100.00;100648.47;4965485;28;20209;-72
2021/07/16 01:17:48;;;;;;;8.93;5.53;;;;;;;17.23;100.00;100640.22;4967023;28;20226;-72
2021/07/16 01:20:18;;;;;;;6.03;5.43;;;;;;;17.19;100.00;100631.63;4964039;28;20205;-72
2021/07/16 01:22:46;;;;;;;6.60;5.67;;;;;;;17.19;100.00;100638.69;4966024;28;20857;-72
2021/07/16 01:25:17;;;;;;;6.40;5.80;;;;;;;17.20;100.00;100646.50;4965598;28;20217;-72
2021/07/16 01:27:47;;;;;;;6.37;5.77;;;;;;;17.15;100.00;100651.16;4965788;28;20226;-72
2021/07/16 01:30:16;;;;;;;5.53;5.03;;;;;;;17.18;100.00;100651.00;4968146;28;20208;-72
2021/07/16 01:32:44;;;;;;;5.70;5.17;;;;;;;17.18;100.00;100651.00;4971249;28;20686;-72
2021/07/16 01:35:12;;;;;;;6.90;5.47;;;;;;;17.22;100.00;100654.34;4970301;28;20206;-72
2021/07/16 01:37:39;;;;;;;6.70;5.53;;;;;;;17.24;100.00;100655.09;4961917;28;20214;-72
2021/07/16 01:40:07;;;;;;;5.43;4.93;;;;;;;17.25;100.00;100653.31;4966040;28;20384;-72
2021/07/16 01:42:36;;;;;;;5.80;5.30;;;;;;;17.30;100.00;100652.13;4972419;28;20311;-72
2021/07/16 01:45:05;;;;;;;5.60;5.10;;;;;;;17.28;100.00;100647.88;4966068;28;20194;-72
2021/07/16 01:47:32;;;;;;;6.20;5.57;;;;;;;17.28;100.00;100648.72;4969041;28;20320;-72
2021/07/16 01:49:58;;;;;;;6.93;5.43;;;;;;;17.27;100.00;100644.38;4963133;28;20265;-72
2021/07/16 01:52:25;;;;;;;5.80;5.30;;;;;;;17.31;100.00;100645.94;4968670;28;20295;-72
2021/07/16 01:54:51;;;;;;;6.13;5.53;;;;;;;17.27;100.00;100641.72;4960859;28;20209;-72
2021/07/16 01:57:18;;;;;;;6.10;5.50;;;;;;;17.34;100.00;100645.78;4972960;28;20308;-72
2021/07/16 01:59:45;;;;;;;6.17;5.57;;;;;;;17.30;100.00;100649.47;4967211;28;20205;-72
2021/07/16 02:02:12;;;;;;;5.63;5.00;;;;;;;17.23;100.00;100638.41;4965714;28;20372;-72
2021/07/16 02:04:38;;;;;;;5.57;5.07;;;;;;;17.27;100.00;100647.00;4964380;28;20210;-72
2021/07/16 02:07:05;;;;;;;6.20;5.60;;;;;;;17.18;100.00;100643.09;4967668;28;20335;-72
2021/07/16 02:09:31;;;;;;;6.20;5.50;;;;;;;17.15;100.00;100655.56;4964053;28;20201;-72
2021/07/16 02:11:58;;;;;;;5.60;5.10;;;;;;;17.08;100.00;100649.78;4964619;28;20296;-72
2021/07/16 02:14:25;;;;;;;6.90;5.23;;;;;;;17.06;100.00;100656.91;4964617;28;20230;-72
2021/07/16 02:16:54;;;;;;;7.93;5.53;;;;;;;17.01;100.00;100651.06;4965836;28;20251;-72
2021/07/16 02:19:20;;;;;;;6.17;5.20;;;;;;;16.91;100.00;100644.56;4972294;28;20280;-72
2021/07/16 02:21:47;;;;;;;6.87;6.17;;;;;;;16.91;100.00;100648.03;4967847;28;20978;-72
2021/07/16 02:24:13;;;;;;;6.00;5.33;;;;;;;16.89;100.00;100647.28;4965102;28;20221;-72
2021/07/16 02:26:40;;;;;;;6.50;5.77;;;;;;;16.82;100.00;100648.50;4964456;28;20233;-72
2021/07/16 02:29:07;;;;;;;6.30;5.70;;;;;;;16.83;100.00;100643.19;4963413;28;20607;-72
2021/07/16 02:31:34;;;;;;;7.53;5.83;;;;;;;16.87;100.00;100645.63;4965568;28;20222;-72
2021/07/16 02:34:02;;;;;;;7.10;6.17;;;;;;;16.77;100.00;100651.34;4985881;28;20584;-72
2021/07/16 02:36:28;;;;;;;6.70;5.90;;;;;;;16.77;100.00;100647.88;4970710;28;21020;-72
2021/07/16 02:38:55;;;;;;;6.30;5.70;;;;;;;16.78;100.00;100654.81;4969135;28;20212;-72
2021/07/16 02:41:21;;;;;;;6.93;6.23;;;;;;;16.74;100.00;100661.19;4967999;28;20237;-72
2021/07/16 02:43:47;;;;;;;7.30;6.00;;;;;;;16.68;100.00;100661.50;4970940;28;20529;-72
2021/07/16 02:46:14;;;;;;;7.93;6.17;;;;;;;16.63;100.00;100665.22;4974837;28;20226;-72
2021/07/16 02:48:41;;;;;;;7.07;6.10;;;;;;;16.64;100.00;100660.81;4970258;28;20210;-72
2021/07/16 02:51:10;;;;;;;6.87;6.17;;;;;;;16.63;100.00;100659.09;4973432;28;20253;-72
2021/07/16 02:53:36;;;;;;;6.40;5.80;;;;;;;16.53;100.00;100652.59;4968499;28;20691;-72
2021/07/16 02:56:03;;;;;;;7.03;6.33;;;;;;;16.51;100.00;100649.19;4968866;28;20731;-72
2021/07/16 02:58:29;;;;;;;6.40;5.80;;;;;;;16.53;100.00;100658.72;4967940;28;20616;-72
2021/07/16 03:00:55;;;;;;;7.23;6.53;;;;;;;16.50;100.00;100664.16;4969875;28;20305;-72
2021/07/16 03:03:23;;;;;;;7.10;6.07;;;;;;;16.52;100.00;100664.91;4967234;28;20228;-72
2021/07/16 03:05:49;;;;;;;7.90;7.10;;;;;;;16.58;100.00;100661.13;4970268;28;20226;-72
2021/07/16 03:08:17;;;;;;;9.03;6.77;;;;;;;16.53;100.00;100663.97;4968730;28;20202;-72
2021/07/16 03:10:45;;;;;;;7.40;6.67;;;;;;;16.58;100.00;100667.22;4970631;28;20682;-72
2021/07/16 03:13:14;;;;;;;7.23;6.30;;;;;;;16.50;100.00;100674.69;4966804;28;20210;-72
2021/07/16 03:15:41;;;;;;;7.83;6.30;;;;;;;16.47;100.00;100680.09;4970006;28;20843;-72
2021/07/16 03:18:08;;;;;;;7.43;6.63;;;;;;;16.40;100.00;100673.44;4970525;28;20659;-72
2021/07/16 03:20:36;;;;;;;7.20;6.53;;;;;;;16.42;100.00;100668.94;4970622;28;20964;-72
2021/07/16 03:23:05;;;;;;;7.50;6.80;;;;;;;16.39;100.00;100667.31;4967619;28;20631;-72
2021/07/16 03:25:32;;;;;;;7.03;6.43;;;;;;;16.45;100.00;100672.25;4968761;28;20397;-72
2021/07/16 03:27:59;;;;;;;7.30;6.60;;;;;;;16.46;100.00;100667.84;4970816;28;20233;-72
2021/07/16 03:30:29;;;;;;;7.73;6.90;;;;;;;16.39;100.00;100667.31;4965402;28;20719;-72
2021/07/16 03:32:56;;;;;;;7.47;6.77;;;;;;;16.49;100.00;100677.38;4969019;28;20288;-72
2021/07/16 03:35:23;;;;;;;6.87;6.13;;;;;;;16.46;100.00;100675.72;4966317;28;20216;-72
2021/07/16 03:37:50;;;;;;;7.83;6.67;;;;;;;16.48;100.00;100673.91;4974072;28;20245;-72
2021/07/16 03:40:18;;;;;;;9.33;6.97;;;;;;;16.48;100.00;100671.28;4966084;28;20817;-72
2021/07/16 03:42:46;;;;;;;7.93;7.13;;;;;;;16.51;100.00;100681.63;4974880;28;20209;-72
2021/07/16 03:45:14;;;;;;;7.70;7.00;;;;;;;16.46;100.00;100681.88;4966860;28;20194;-72
2021/07/16 03:47:42;;;;;;;8.30;7.20;;;;;;;16.42;100.00;100682.09;4967065;28;20316;-72
2021/07/16 03:50:10;;;;;;;7.77;7.07;;;;;;;16.44;100.00;100682.84;4968504;28;21068;-72
2021/07/16 03:52:36;;;;;;;7.67;6.70;;;;;;;16.44;100.00;100686.34;4968925;28;20217;-72
2021/07/16 03:55:05;;;;;;;7.63;6.93;;;;;;;16.49;100.00;100683.47;4970684;28;20677;-72
2021/07/16 03:57:32;;;;;;;7.30;6.60;;;;;;;16.55;100.00;100688.47;4961331;28;20229;-72
2021/07/16 04:00:02;;;;;;;8.83;7.73;;;;;;;16.60;100.00;100690.84;4970776;28;20213;-72
2021/07/16 04:02:34;;;;;;;10.43;7.33;;;;;;;16.58;100.00;100687.44;4969433;28;20747;-72
2021/07/16 04:05:01;;;;;;;7.30;6.60;;;;;;;16.58;100.00;100696.19;4973560;28;20217;-72
2021/07/16 04:07:29;;;;;;;8.93;7.37;;;;;;;16.62;100.00;100697.75;4968162;28;20237;-72
2021/07/16 04:09:55;;;;;;;7.90;7.10;;;;;;;16.66;100.00;100704.53;4968372;28;20239;-72
2021/07/16 04:12:22;;;;;;;8.33;7.47;;;;;;;16.69;100.00;100703.53;4968740;28;20856;-72
2021/07/16 04:14:51;;;;;;;8.30;7.43;;;;;;;16.79;100.00;100709.19;4969689;28;20233;-72
2021/07/16 04:17:20;;;;;;;8.83;7.80;;;;;;;16.86;100.00;100712.41;4970931;28;20210;-72
2021/07/16 04:19:48;;;;;;;7.70;7.00;;;;;;;16.88;100.00;100707.91;4962460;28;20712;-72
2021/07/16 04:22:15;;;;;;;7.93;7.07;;;;;;;17.05;100.00;100710.53;4970653;28;20206;-72
2021/07/16 04:24:43;;;;;;;8.67;7.07;;;;;;;17.11;100.00;100709.34;4962353;28;20239;-72
2021/07/16 04:27:10;;;;;;;7.80;7.00;;;;;;;17.12;100.00;100711.91;4972457;28;20567;-72
2021/07/16 04:29:38;;;;;;;7.87;7.07;;;;;;;17.22;100.00;100710.50;4966422;28;20301;-72
2021/07/16 04:32:06;;;;;;;7.57;6.77;;;;;;;17.24;100.00;100699.88;4968671;28;20202;-72
2021/07/16 04:34:36;;;;;;;7.60;6.90;;;;;;;17.32;100.00;100707.38;4966619;28;20233;-72
2021/07/16 04:37:04;;;;;;;7.47;6.67;;;;;;;17.42;100.00;100711.22;4964704;28;20210;-72
2021/07/16 04:39:31;;;;;;;7.33;6.57;;;;;;;17.52;100.00;100724.75;4966444;28;20236;-72
2021/07/16 04:41:58;;;;;;;7.50;6.67;;;;;;;17.65;100.00;100717.88;4965320;28;20206;-72
2021/07/16 04:44:24;;;;;;;7.70;6.70;;;;;;;17.71;100.00;100719.34;4967762;28;20292;-72
2021/07/16 04:46:51;;;;;;;6.70;6.10;;;;;;;17.81;100.00;100722.34;4966151;28;20233;-72
2021/07/16 04:49:18;;;;;;;6.70;6.10;;;;;;;17.88;100.00;100729.00;4965225;28;20754;-72
2021/07/16 04:51:46;;;;;;;7.50;6.23;;;;;;;17.97;100.00;100720.56;4967260;28;20210;-72
2021/07/16 04:54:14;;;;;;;5.90;5.30;;;;;;;18.17;100.00;100730.03;4971051;28;20230;-72
2021/07/16 04:56:41;;;;;;;6.37;5.30;;;;;;;18.24;100.00;100727.88;4966961;28;20225;-72
2021/07/16 04:59:08;;;;;;;6.37;5.70;;;;;;;18.32;100.00;100729.16;4964778;28;20228;-72
2021/07/16 05:01:34;;;;;;;6.20;5.40;;;;;;;18.47;100.00;100729.22;4966976;28;20213;-72
2021/07/16 05:04:01;;;;;;;5.97;5.37;;;;;;;18.58;100.00;100734.72;4966858;28;20601;-72
2021/07/16 05:06:27;;;;;;;5.67;5.17;;;;;;;18.69;100.00;100737.59;4967098;28;20221;-72
2021/07/16 05:08:55;;;;;;;5.57;5.03;;;;;;;18.84;99.92;100735.88;4967482;28;20309;-72
2021/07/16 05:11:22;;;;;;;5.57;4.93;;;;;;;18.98;98.97;100736.84;4966920;28;20228;-73
2021/07/16 05:13:50;;;;;;;5.20;4.70;;;;;;;19.14;98.17;100744.69;4967829;28;20317;-72
2021/07/16 05:16:18;;;;;;;6.17;5.10;;;;;;;19.33;98.88;100752.38;4965431;28;20227;-72
2021/07/16 05:18:45;;;;;;;5.60;5.00;;;;;;;19.41;96.73;100750.13;4970184;28;20241;-72
2021/07/16 05:21:13;;;;;;;5.13;4.63;;;;;;;19.37;93.97;100753.91;4966120;28;20751;-72
2021/07/16 05:23:39;;;;;;;5.37;4.50;;;;;;;19.48;94.81;100754.09;4967350;28;20216;-72
2021/07/16 05:26:07;;;;;;;5.87;4.70;;;;;;;19.51;93.68;100753.91;4962714;28;20226;-72
2021/07/16 05:28:33;;;;;;;4.97;4.47;;;;;;;19.56;94.10;100756.25;4965321;28;20667;-72
2021/07/16 05:31:00;;;;;;;4.57;4.17;;;;;;;19.57;93.36;100752.66;4965056;28;21277;-73
2021/07/16 05:33:27;;;;;;;5.10;4.60;;;;;;;19.63;94.33;100752.28;4960137;28;20268;-72
2021/07/16 05:35:53;;;;;;;5.23;4.73;;;;;;;19.64;93.71;100757.47;4966396;28;20230;-72
2021/07/16 05:38:21;;;;;;;5.03;4.57;;;;;;;19.69;93.45;100759.84;4965281;28;20589;-72
2021/07/16 05:40:48;;;;;;;5.27;4.77;;;;;;;19.73;91.79;100765.78;4966117;28;20247;-72
2021/07/16 05:43:16;;;;;;;5.23;4.73;;;;;;;19.82;91.38;100759.94;4965106;28;20217;-72
2021/07/16 05:45:43;;;;;;;5.03;4.53;;;;;;;20.00;90.43;100760.59;4975014;28;20960;-73
2021/07/16 05:48:11;;;;;;;6.33;4.90;;;;;;;20.19;89.98;100769.06;4963942;28;20877;-72
2021/07/16 05:50:39;;;;;;;4.90;4.47;;;;;;;20.41;89.94;100768.50;4965443;28;20215;-72
2021/07/16 05:53:08;;;;;;;5.30;4.30;;;;;;;20.61;90.08;100767.25;4965997;28;20659;-72
2021/07/16 05:55:35;;;;;;;4.83;4.43;;;;;;;20.69;88.19;100777.31;4971491;28;20206;-72
2021/07/16 05:58:01;;;;;;;4.40;3.90;;;;;;;20.71;87.17;100769.28;4965670;28;20218;-73
2021/07/16 06:00:29;;;;;;;5.33;4.20;;;;;;;20.83;88.08;100762.31;4966400;28;20207;-72
2021/07/16 06:02:56;;;;;;;5.37;4.30;;;;;;;20.92;88.03;100762.53;4969423;28;20205;-72
2021/07/16 06:05:22;;;;;;;6.27;4.50;;;;;;;20.95;86.98;100762.34;4963517;28;20209;-72
2021/07/16 06:07:49;;;;;;;7.80;4.60;;;;;;;21.03;86.21;100772.41;4963352;28;20325;-73
2021/07/16 06:10:16;;;;;;;5.43;4.33;;;;;;;21.09;85.36;100769.34;4958479;28;20563;-72
2021/07/16 06:12:43;;;;;;;4.40;4.00;;;;;;;21.12;84.56;100776.25;4965466;28;20216;-72
2021/07/16 06:15:10;;;;;;;4.53;4.10;;;;;;;21.23;84.25;100783.44;4959234;28;20599;-72
2021/07/16 06:17:38;;;;;;;4.43;4.03;;;;;;;21.31;83.84;100781.13;4962023;28;20234;-72
2021/07/16 06:20:07;;;;;;;4.53;4.07;;;;;;;21.33;83.00;100779.22;4960752;28;20201;-72
2021/07/16 06:22:33;;;;;;;4.73;3.73;;;;;;;21.42;85.01;100775.94;4965369;28;20654;-72
2021/07/16 06:25:00;;;;;;;4.30;3.90;;;;;;;21.55;82.77;100786.59;4965190;28;20208;-72
2021/07/16 06:27:26;;;;;;;5.20;3.83;;;;;;;21.69;83.41;100793.59;4962535;28;20318;-72
2021/07/16 06:29:53;;;;;;;4.90;3.87;;;;;;;21.75;82.60;100795.78;4962205;28;20208;-72
2021/07/16 06:32:19;;;;;;;4.60;4.20;;;;;;;21.85;82.48;100788.88;4961835;28;20211;-72
2021/07/16 06:34:47;;;;;;;4.63;4.07;;;;;;;22.00;83.92;100783.44;4962411;28;20204;-72
2021/07/16 06:37:13;;;;;;;4.67;4.23;;;;;;;22.00;80.99;100792.22;4959684;28;20333;-72
2021/07/16 06:39:40;;;;;;;4.50;4.10;;;;;;;22.07;81.48;100797.94;4960002;28;20535;-72
2021/07/16 06:42:07;;;;;;;6.07;4.23;;;;;;;22.23;82.44;100793.25;4962296;28;20210;-72
2021/07/16 06:44:33;;;;;;;4.67;4.27;;;;;;;22.29;81.48;100797.28;4963764;28;20241;-72
2021/07/16 06:47:00;;;;;;;5.13;3.80;;;;;;;22.35;80.84;100796.84;4960477;28;20225;-72
2021/07/16 06:49:27;;;;;;;5.10;4.20;;;;;;;22.37;79.56;100802.88;4964198;28;20225;-72
2021/07/16 06:51:55;;;;;;;5.70;3.93;;;;;;;22.54;78.81;100806.97;4961172;28;20759;-72
2021/07/16 06:54:22;;;;;;;3.80;3.50;;;;;;;22.55;79.29;100805.16;4964003;28;20308;-72
2021/07/16 06:56:48;;;;;;;4.17;3.77;;;;;;;22.63;79.25;100806.28;4961645;28;20268;-72
2021/07/16 06:59:14;;;;;;;5.07;4.18;;;;;;;22.71;78.26;100808.38;4963153;28;20202;-72
2021/07/16 07:01:41;;;;;;;4.15;3.70;;;;;;;22.91;78.61;100804.22;4962331;28;20784;-72
2021/07/16 07:04:07;;;;;;;4.38;3.97;;;;;;;23.00;78.28;100800.03;4960657;28;20201;-72
2021/07/16 07:06:34;;;;;;;4.38;3.97;;;;;;;23.07;78.35;100795.97;4963999;28;20241;-72
2021/07/16 07:09:02;;;;;;;3.78;3.47;;;;;;;23.10;76.05;100803.72;4964010;28;20210;-72
2021/07/16 07:11:28;;;;;;;4.45;4.03;;;;;;;23.27;75.43;100798.91;4969032;28;20229;-72
2021/07/16 07:13:54;;;;;;;3.97;3.63;;;;;;;23.34;74.14;100800.13;4965571;28;20218;-73
2021/07/16 07:16:21;;;;;;;7.38;3.60;;;;;;;23.29;74.42;100794.31;4965854;28;20812;-72
2021/07/16 07:18:48;;;;;;;3.90;3.38;;;;;;;23.48;73.40;100809.69;4961132;28;20674;-72
2021/07/16 07:21:15;;;;;;;3.75;3.42;;;;;;;23.69;75.40;100801.84;4962969;28;20209;-73
2021/07/16 07:23:42;;;;;;;4.40;3.40;;;;;;;23.73;71.26;100817.47;4966532;28;20213;-72
2021/07/16 07:26:10;;;;;;;4.85;2.83;;;;;;;23.74;72.09;100813.00;4973597;28;20225;-72
2021/07/16 07:28:36;;;;;;;4.40;3.28;;;;;;;23.85;71.57;100806.84;4963217;28;20596;-73
2021/07/16 07:31:03;;;;;;;4.40;2.90;;;;;;;23.94;70.13;100804.31;4968487;28;20319;-72
2021/07/16 07:33:29;;;;;;;3.00;2.80;;;;;;;24.03;73.38;100801.84;4966423;28;20206;-72
2021/07/16 07:35:57;;;;;;;3.40;3.10;;;;;;;24.01;69.14;100812.66;4968836;28;20250;-72
2021/07/16 07:38:24;;;;;;;3.30;3.00;;;;;;;24.19;69.44;100811.16;4962330;28;20190;-72
2021/07/16 07:40:51;;;;;;;3.50;3.00;;;;;;;24.18;69.08;100805.97;4965395;28;20336;-73
2021/07/16 07:43:18;;;;;;;2.97;2.78;;;;;;;24.35;71.39;100801.94;4965725;28;20671;-73
2021/07/16 07:45:45;;;;;;;2.97;2.72;;;;;;;24.49;67.08;100817.63;4964375;28;20518;-72
2021/07/16 07:48:12;;;;;;;3.22;2.88;;;;;;;24.64;68.97;100817.38;4967348;28;20224;-73
2021/07/16 07:50:39;;;;;;;3.30;3.03;;;;;;;24.74;71.75;100807.66;4965475;28;20677;-73
2021/07/16 07:53:05;;;;;;;3.38;3.05;;;;;;;24.85;71.51;100799.59;4968212;28;20206;-72
2021/07/16 07:55:32;;;;;;;3.10;2.78;;;;;;;24.93;69.33;100801.63;4964149;28;20210;-73
2021/07/16 07:57:58;;;;;;;3.65;3.35;;;;;;;25.04;69.03;100806.06;4966131;28;20437;-73
2021/07/16 08:00:27;;;;;;;3.30;3.00;;;;;;;25.10;71.94;100802.84;4966338;28;20649;-72
2021/07/16 08:02:54;;;;;;;3.70;3.40;;;;;;;25.04;69.26;100806.06;4969496;28;20303;-72
2021/07/16 08:05:23;;;;;;;4.10;3.10;;;;;;;25.12;67.83;100808.94;4965042;28;20570;-73
2021/07/16 08:07:49;;;;;;;3.25;3.05;;;;;;;25.27;68.47;100809.47;4967288;28;20257;-73
2021/07/16 08:10:18;;;;;;;3.83;3.40;;;;;;;25.22;68.68;100803.66;4964410;28;20212;-72
2021/07/16 08:12:45;;;;;;;3.28;3.03;;;;;;;25.31;70.62;100806.41;4965755;28;20386;-73
2021/07/16 08:15:14;;;;;;;3.65;3.25;;;;;;;25.26;67.56;100805.13;4964737;28;20199;-72
2021/07/16 08:17:42;;;;;;;3.25;3.03;;;;;;;25.37;68.89;100799.69;4967107;28;20585;-72
2021/07/16 08:20:10;;;;;;;4.47;3.30;;;;;;;25.35;66.71;100803.47;4967170;28;20775;-73
2021/07/16 08:22:37;;;;;;;3.10;2.80;;;;;;;25.40;67.92;100807.44;4964206;28;20214;-73
2021/07/16 08:25:04;;;;;;;3.50;3.20;;;;;;;25.55;67.20;100812.44;4965792;28;20680;-73
2021/07/16 08:27:31;;;;;;;4.18;3.25;;;;;;;25.58;67.34;100807.69;4962025;28;20241;-72
2021/07/16 08:29:57;;;;;;;3.58;3.28;;;;;;;25.52;67.41;100810.84;4966147;28;20309;-72
2021/07/16 08:32:24;;;;;;;5.28;3.17;;;;;;;25.63;69.44;100800.13;4962961;28;20202;-72
2021/07/16 08:34:52;;;;;;;4.25;3.22;;;;;;;25.71;63.95;100810.13;4965758;28;20606;-73
2021/07/16 08:37:18;;;;;;;3.22;2.92;;;;;;;25.65;66.45;100799.97;4962713;28;20280;-73
2021/07/16 08:39:45;;;;;;;4.18;3.33;;;;;;;25.81;65.63;100816.34;4965915;28;20788;-72
2021/07/16 08:42:14;;;;;;;3.58;3.22;;;;;;;25.87;65.31;100820.28;4962861;28;20464;-73
2021/07/16 08:44:43;;;;;;;3.78;3.47;;;;;;;25.95;67.01;100814.34;4964390;28;20231;-73
2021/07/16 08:47:11;;;;;;;3.80;3.50;;;;;;;25.96;66.67;100816.88;4965912;28;20226;-73
2021/07/16 08:49:39;;;;;;;3.67;3.38;;;;;;;26.02;66.64;100818.16;4961417;28;20238;-72
2021/07/16 08:52:08;;;;;;;3.80;3.45;;;;;;;26.22;66.31;100819.88;4963404;28;20197;-73
2021/07/16 08:54:38;;;;;;;3.20;3.00;;;;;;;26.19;64.62;100808.59;4961048;28;20210;-73
2021/07/16 08:57:05;;;;;;;3.17;2.85;;;;;;;26.36;65.59;100817.78;4963734;28;20316;-72
2021/07/16 08:59:32;;;;;;;3.47;3.17;;;;;;;26.43;65.85;100814.41;4962502;28;20210;-72
2021/07/16 09:02:01;;;;;;;3.17;2.88;;;;;;;26.43;65.65;100813.59;4967604;28;20677;-72
2021/07/16 09:04:27;;;;;;;2.80;2.60;;;;;;;26.44;62.78;100815.28;4960740;28;20393;-73
2021/07/16 09:06:55;;;;;;;2.88;2.67;;;;;;;26.48;63.19;100815.84;4965053;28;20229;-72
2021/07/16 09:09:24;;;;;;;2.97;2.78;;;;;;;26.56;64.00;100824.00;4960478;28;20222;-72
2021/07/16 09:11:53;;;;;;;3.88;2.85;;;;;;;26.49;62.57;100820.19;4964525;28;20771;-73
2021/07/16 09:14:22;;;;;;;3.08;2.80;;;;;;;26.58;60.42;100825.56;4960345;28;20556;-72
2021/07/16 09:17:01;;;;;;;2.95;2.75;;;;;;;26.83;61.40;100826.88;4959888;28;20233;-73
2021/07/16 09:19:30;;;;;;;2.80;2.60;;;;;;;26.76;60.57;100828.41;4970216;28;20624;-72
2021/07/16 09:22:10;;;;;;;3.35;3.10;;;;;;;26.85;63.87;100813.34;4962725;28;20209;-73
2021/07/16 09:24:40;;;;;;;2.72;2.53;;;;;;;26.97;59.82;100824.75;4963890;28;20751;-73
2021/07/16 09:27:41;;;;;;;2.90;2.58;;;;;;;27.17;58.11;100829.09;4963101;28;20592;-73
2021/07/16 09:30:13;;;;;;;2.70;2.30;;;;;;;26.73;59.08;100835.88;4885848;29;20657;-73
2021/07/16 09:32:40;;;;;;;2.53;2.33;;;;;;;26.86;59.02;100824.91;4882708;29;20611;-72
2021/07/16 09:35:09;;;;;;;2.80;2.60;;;;;;;26.99;55.87;100830.81;4919861;28;20210;-73
2021/07/16 09:37:51;;;;;;;3.00;2.53;;;;;;;27.06;58.45;100823.91;4963659;28;20260;-72
2021/07/16 09:40:27;;;;;;;3.25;2.42;;;;;;;26.94;61.22;100814.34;4957804;28;20233;-72
2021/07/16 09:43:06;;;;;;;2.40;2.20;;;;;;;26.92;61.06;100819.00;4963697;28;20511;-73
2021/07/16 09:45:33;;;;;;;2.88;2.50;;;;;;;27.30;60.28;100812.78;4960538;28;20301;-73
2021/07/16 09:48:17;;;;;;;2.88;2.40;;;;;;;27.55;57.60;100818.47;4964856;28;20225;-73
2021/07/16 09:50:44;;;;;;;2.47;2.28;;;;;;;27.65;56.12;100819.28;4964640;28;20244;-72
2021/07/16 09:53:15;;;;;;;2.53;2.33;;;;;;;27.50;57.84;100812.72;4964650;28;20216;-73
2021/07/16 09:55:43;;;;;;;3.50;2.63;;;;;;;27.65;58.60;100827.31;4963034;28;20643;-73
2021/07/16 09:58:27;;;;;;;2.78;2.58;;;;;;;27.46;58.59;100820.19;4961245;28;20265;-73
2021/07/16 10:00:55;;;;;;;4.65;2.75;;;;;;;27.15;59.71;100823.03;4969746;28;20631;-73
2021/07/16 10:03:23;;;;;;;3.00;2.70;;;;;;;26.88;60.52;100818.44;4962165;28;20597;-73
2021/07/16 10:05:50;;;;;;;4.18;3.05;;;;;;;26.83;60.20;100821.53;4964932;28;20304;-73
2021/07/16 10:08:18;;;;;;;3.50;2.85;;;;;;;26.86;61.48;100819.53;4961417;28;20222;-73
2021/07/16 10:10:48;;;;;;;3.15;2.85;;;;;;;27.05;60.65;100826.72;4966945;28;20206;-73
2021/07/16 10:13:15;;;;;;;3.30;3.00;;;;;;;27.36;59.58;100822.88;4964034;28;20213;-73
2021/07/16 10:15:43;;;;;;;3.95;2.85;;;;;;;27.55;57.34;100824.66;4962341;28;20210;-73
2021/07/16 10:18:10;;;;;;;3.25;2.95;;;;;;;27.66;60.53;100814.78;4959982;28;20753;-73
2021/07/16 10:20:37;;;;;;;2.72;2.53;;;;;;;27.63;60.75;100815.06;4957457;28;20210;-73
2021/07/16 10:23:05;;;;;;;2.67;2.47;;;;;;;27.70;61.33;100811.66;4960538;28;20202;-73
2021/07/16 10:25:32;;;;;;;2.78;2.38;;;;;;;27.93;56.31;100824.69;4959613;28;20245;-73
2021/07/16 10:28:00;;;;;;;2.75;2.55;;;;;;;28.25;57.01;100818.88;4963691;28;20234;-73
2021/07/16 10:30:32;;;;;;;2.85;2.55;;;;;;;28.23;55.20;100822.69;4958147;28;20599;-73
2021/07/16 10:33:00;;;;;;;4.90;2.80;;;;;;;28.41;55.30;100817.38;4964349;28;20264;-73
2021/07/16 10:35:28;;;;;;;2.75;2.55;;;;;;;28.34;56.41;100817.13;4961730;28;20210;-73
2021/07/16 10:37:57;;;;;;;2.95;2.65;;;;;;;28.59;57.84;100807.53;4964200;28;20228;-73
2021/07/16 10:40:34;;;;;;;3.03;2.83;;;;;;;28.55;56.82;100822.25;4960251;28;20202;-73
2021/07/16 10:43:03;;;;;;;3.70;2.80;;;;;;;28.64;58.38;100812.44;4958171;28;20745;-73
2021/07/16 10:45:35;;;;;;;2.90;2.70;;;;;;;28.97;56.32;100821.59;4961524;28;20206;-73
2021/07/16 10:48:17;;;;;;;3.92;3.50;;;;;;;28.79;53.02;100829.66;4959543;28;20308;-73
2021/07/16 10:50:45;;;;;;;3.35;3.05;;;;;;;28.71;53.97;100826.91;4957416;28;20241;-73
2021/07/16 10:53:17;;;;;;;3.72;3.28;;;;;;;28.86;55.85;100817.31;4957618;28;20364;-73
2021/07/16 10:56:02;;;;;;;4.05;3.50;;;;;;;28.96;52.54;100829.81;4962867;28;20598;-73
2021/07/16 10:58:31;;;;;;;3.70;3.40;;;;;;;28.65;52.89;100836.44;4965789;28;20206;-73
2021/07/16 11:00:59;;;;;;;3.88;3.35;;;;;;;28.50;53.45;100844.09;4964669;28;20202;-73
2021/07/16 11:03:39;;;;;;;3.72;3.38;;;;;;;28.33;54.07;100848.44;4961962;28;20233;-73
2021/07/16 11:06:06;;;;;;;3.58;3.30;;;;;;;28.46;55.43;100836.50;4964243;28;20781;-73
2021/07/16 11:08:58;;;;;;;3.90;3.60;;;;;;;28.73;53.54;100848.22;4965439;28;20230;-73
2021/07/16 11:11:38;;;;;;;3.95;3.58;;;;;;;28.73;53.11;100858.97;4959842;28;20218;-73
2021/07/16 11:14:07;;;;;;;3.83;3.53;;;;;;;28.96;54.13;100852.13;4964613;28;20205;-73
2021/07/16 11:16:47;;;;;;;3.50;3.20;;;;;;;29.08;53.77;100852.72;4965833;28;20230;-73
2021/07/16 11:19:23;;;;;;;4.95;3.70;;;;;;;28.96;51.72;100852.13;4962181;28;20244;-73
2021/07/16 11:22:01;;;;;;;3.75;3.45;;;;;;;29.11;55.37;100839.00;4964809;28;20209;-73
2021/07/16 11:24:31;;;;;;;4.38;3.35;;;;;;;29.19;53.68;100843.59;4966451;28;20235;-73
2021/07/16 11:26:59;;;;;;;3.88;3.50;;;;;;;29.23;53.34;100839.59;4965132;28;20226;-73